createdAt,value
2022-08-05T00:00:29.597Z,1000.4
2022-08-05T00:01:35.772Z,1000.4
2022-08-05T00:02:33.653Z,1000.4
2022-08-05T00:03:35.579Z,1000.4
2022-08-05T00:04:37.590Z,1000.4
2022-08-05T00:06:03.573Z,1000.4
2022-08-05T00:06:41.570Z,1000.4
2022-08-05T00:07:59.566Z,1000.4
2022-08-05T00:08:45.566Z,1000.4
2022-08-05T00:09:47.591Z,1000.4
2022-08-05T00:10:49.618Z,1000.4
2022-08-05T00:11:55.570Z,1000.4
2022-08-05T00:12:57.095Z,1000.4
2022-08-05T00:13:59.577Z,1000.4
2022-08-05T00:15:13.939Z,1000.3
2022-08-05T00:16:03.602Z,1000.4
2022-08-05T00:17:05.653Z,1000.3
2022-08-05T00:18:07.583Z,1000.3
2022-08-05T00:19:09.583Z,1000.3
2022-08-05T00:20:11.589Z,1000.3
2022-08-05T00:21:14.349Z,1000.3
2022-08-05T00:22:15.653Z,1000.3
2022-08-05T00:23:17.610Z,1000.3
2022-08-05T00:24:24.408Z,1000.2
2022-08-05T00:25:21.646Z,1000.2
2022-08-05T00:26:23.592Z,1000.2
2022-08-05T00:27:28.635Z,1000.2
2022-08-05T00:28:29.568Z,1000.2
2022-08-05T00:29:32.993Z,1000.3
2022-08-05T00:30:32.063Z,1000.3
2022-08-05T00:31:41.577Z,1000.2
2022-08-05T00:32:35.957Z,1000.2
2022-08-05T00:34:42.638Z,1000.2
2022-08-05T00:34:42.669Z,1000.2
2022-08-05T00:35:47.866Z,1000.2
2022-08-05T00:37:09.490Z,1000.2
2022-08-05T00:37:51.434Z,1000.2
2022-08-05T00:38:47.620Z,1000.1
2022-08-05T00:39:57.575Z,1000.1
2022-08-05T00:40:53.373Z,1000.2
2022-08-05T00:41:55.387Z,1000.1
2022-08-05T00:42:55.630Z,1000.2
2022-08-05T00:43:57.624Z,1000.1
2022-08-05T00:44:59.654Z,1000.1
2022-08-05T00:46:01.649Z,1000.1
2022-08-05T00:47:05.867Z,1000.1
2022-08-05T00:48:06.250Z,1000
2022-08-05T00:49:07.793Z,1000
2022-08-05T00:50:09.638Z,1000
2022-08-05T00:51:49.882Z,1000
2022-08-05T00:52:13.652Z,1000
2022-08-05T00:53:44.791Z,1000
2022-08-05T00:54:17.677Z,1000
2022-08-05T00:55:19.689Z,1000
2022-08-05T00:56:22.849Z,1000
2022-08-05T00:57:25.319Z,1000
2022-08-05T00:58:27.281Z,1000.1
2022-08-05T00:59:34.651Z,1000
2022-08-05T01:00:29.738Z,1000
2022-08-05T01:01:42.375Z,1000
2022-08-05T01:02:33.690Z,1000
2022-08-05T01:03:35.689Z,1000
2022-08-05T01:04:37.665Z,999.9
2022-08-05T01:05:39.663Z,999.9
2022-08-05T01:06:41.734Z,1000
2022-08-05T01:08:30.009Z,999.9
2022-08-05T01:08:47.124Z,999.9
2022-08-05T01:09:55.627Z,999.9
2022-08-05T01:10:51.740Z,999.9
2022-08-05T01:11:51.828Z,999.9
2022-08-05T01:12:54.324Z,999.9
2022-08-05T01:13:58.065Z,999.9
2022-08-05T01:14:57.679Z,999.9
2022-08-05T01:15:59.820Z,999.9
2022-08-05T01:17:01.978Z,999.9
2022-08-05T01:18:03.684Z,999.9
2022-08-05T01:19:05.720Z,999.9
2022-08-05T01:20:07.694Z,999.8
2022-08-05T01:21:09.698Z,999.8
2022-08-05T01:22:15.585Z,999.8
2022-08-05T01:23:14.485Z,999.8
2022-08-05T01:24:15.764Z,999.8
2022-08-05T01:25:17.693Z,999.8
2022-08-05T01:26:19.692Z,999.8
2022-08-05T01:27:22.183Z,999.8
2022-08-05T01:28:23.712Z,999.7
2022-08-05T01:29:25.754Z,999.7
2022-08-05T01:30:33.476Z,999.7
2022-08-05T01:31:29.964Z,999.7
2022-08-05T01:32:31.718Z,999.7
2022-08-05T01:33:35.252Z,999.7
2022-08-05T01:34:35.993Z,999.7
2022-08-05T01:35:50.476Z,999.7
2022-08-05T01:36:42.102Z,999.7
2022-08-05T01:37:44.235Z,999.6
2022-08-05T01:38:43.757Z,999.7
2022-08-05T01:39:47.770Z,999.7
2022-08-05T01:40:47.725Z,999.6
2022-08-05T01:41:50.203Z,999.6
2022-08-05T01:42:51.760Z,999.6
2022-08-05T01:43:53.769Z,999.6
2022-08-05T01:44:55.765Z,999.6
2022-08-05T01:45:57.777Z,999.6
2022-08-05T01:46:59.962Z,999.6
2022-08-05T01:48:01.819Z,999.6
2022-08-05T01:49:12.242Z,999.7
2022-08-05T01:50:05.937Z,999.6
2022-08-05T01:51:12.242Z,999.6
2022-08-05T01:52:12.494Z,999.6
2022-08-05T01:53:11.746Z,999.6
2022-08-05T01:54:13.774Z,999.6
2022-08-05T01:55:15.791Z,999.6
2022-08-05T01:58:08.751Z,999.6
2022-08-05T01:58:09.228Z,999.6
2022-08-05T01:58:30.104Z,999.6
2022-08-05T01:59:23.804Z,999.6
2022-08-05T02:00:29.820Z,999.6
2022-08-05T02:01:27.804Z,999.6
2022-08-05T02:02:29.846Z,999.6
2022-08-05T02:03:34.016Z,999.6
2022-08-05T02:04:33.830Z,999.5
2022-08-05T02:05:35.887Z,999.5
2022-08-05T02:06:38.743Z,999.5
2022-08-05T02:07:40.366Z,999.6
2022-08-05T02:08:44.794Z,999.5
2022-08-05T02:09:43.776Z,999.5
2022-08-05T02:10:46.364Z,999.5
2022-08-05T02:11:52.443Z,999.5
2022-08-05T02:12:50.966Z,999.4
2022-08-05T02:13:53.554Z,999.4
2022-08-05T02:14:53.775Z,999.5
2022-08-05T02:15:55.837Z,999.5
2022-08-05T02:16:57.791Z,999.5
2022-08-05T02:18:15.256Z,999.5
2022-08-05T02:19:01.830Z,999.4
2022-08-05T02:20:03.819Z,999.4
2022-08-05T02:21:05.838Z,999.5
2022-08-05T02:22:07.795Z,999.4
2022-08-05T02:23:09.794Z,999.4
2022-08-05T02:24:11.801Z,999.4
2022-08-05T02:25:13.834Z,999.4
2022-08-05T02:26:15.812Z,999.4
2022-08-05T02:27:17.847Z,999.4
2022-08-05T02:28:28.281Z,999.4
2022-08-05T02:29:24.205Z,999.4
2022-08-05T02:30:23.839Z,999.4
2022-08-05T02:31:25.813Z,999.4
2022-08-05T02:32:29.345Z,999.4
2022-08-05T02:33:36.354Z,999.4
2022-08-05T02:34:31.809Z,999.4
2022-08-05T02:35:37.916Z,999.4
2022-08-05T02:36:35.810Z,999.3
2022-08-05T02:37:37.873Z,999.3
2022-08-05T02:38:40.356Z,999.3
2022-08-05T02:39:41.861Z,999.3
2022-08-05T02:40:43.820Z,999.3
2022-08-05T02:41:58.352Z,999.3
2022-08-05T02:42:52.602Z,999.2
2022-08-05T02:44:02.199Z,999.3
2022-08-05T02:44:51.830Z,999.3
2022-08-05T02:45:54.119Z,999.3
2022-08-05T02:47:00.023Z,999.3
2022-08-05T02:47:58.776Z,999.3
2022-08-05T02:48:59.831Z,999.4
2022-08-05T02:50:01.981Z,999.4
2022-08-05T02:51:03.916Z,999.3
2022-08-05T02:52:05.857Z,999.3
2022-08-05T02:53:11.638Z,999.3
2022-08-05T02:54:09.905Z,999.3
2022-08-05T02:55:12.267Z,999.3
2022-08-05T02:56:15.839Z,999.3
2022-08-05T02:58:09.058Z,999.3
2022-08-05T02:58:18.117Z,999.3
2022-08-05T02:59:19.887Z,999.3
2022-08-05T03:00:21.895Z,999.2
2022-08-05T03:01:23.950Z,999.3
2022-08-05T03:02:27.378Z,999.3
2022-08-05T03:03:27.900Z,999.3
2022-08-05T03:04:30.425Z,999.3
2022-08-05T03:06:52.752Z,999.3
2022-08-05T03:06:53.203Z,999.2
2022-08-05T03:07:40.816Z,999.2
2022-08-05T03:08:42.523Z,999.2
2022-08-05T03:09:43.383Z,999.2
2022-08-05T03:11:41.238Z,999.2
2022-08-05T03:11:55.859Z,999.2
2022-08-05T03:12:48.887Z,999.2
2022-08-05T03:13:51.266Z,999.2
2022-08-05T03:14:52.878Z,999.2
2022-08-05T03:15:54.953Z,999.2
2022-08-05T03:16:56.892Z,999.2
2022-08-05T03:17:59.354Z,999.2
2022-08-05T03:19:00.951Z,999.2
2022-08-05T03:20:02.945Z,999.2
2022-08-05T03:21:04.893Z,999.2
2022-08-05T03:22:16.145Z,999.2
2022-08-05T03:23:08.893Z,999.2
2022-08-05T03:24:10.970Z,999.2
2022-08-05T03:25:32.122Z,999.2
2022-08-05T03:26:30.693Z,999.2
2022-08-05T03:27:16.978Z,999.2
2022-08-05T03:28:19.622Z,999.1
2022-08-05T03:29:20.936Z,999.1
2022-08-05T03:30:28.637Z,999.1
2022-08-05T03:31:55.503Z,999.1
2022-08-05T03:32:30.762Z,999.1
2022-08-05T03:33:32.160Z,999.1
2022-08-05T03:34:30.955Z,999.1
2022-08-05T03:35:33.656Z,999.1
2022-08-05T03:36:34.932Z,999.1
2022-08-05T03:37:37.826Z,999.1
2022-08-05T03:38:40.724Z,999.1
2022-08-05T03:39:47.334Z,999.1
2022-08-05T03:40:47.180Z,999.1
2022-08-05T03:41:47.083Z,999.1
2022-08-05T03:42:52.322Z,999.1
2022-08-05T03:43:59.666Z,999.1
2022-08-05T03:44:52.943Z,999.1
2022-08-05T03:45:58.398Z,999.1
2022-08-05T03:46:56.923Z,999.1
2022-08-05T03:47:59.020Z,999.1
2022-08-05T03:49:01.793Z,999.1
2022-08-05T03:50:02.960Z,999.1
2022-08-05T03:51:06.939Z,999.1
2022-08-05T03:52:36.212Z,999.1
2022-08-05T03:54:59.855Z,999.1
2022-08-05T03:55:07.033Z,999.1
2022-08-05T03:55:54.289Z,999.1
2022-08-05T03:56:18.161Z,999.1
2022-08-05T03:57:17.796Z,999.2
2022-08-05T03:58:19.016Z,999.2
2022-08-05T03:59:20.959Z,999.1
2022-08-05T04:00:22.982Z,999.1
2022-08-05T04:01:25.476Z,999.1
2022-08-05T04:02:38.048Z,999.1
2022-08-05T04:03:29.196Z,999.1
2022-08-05T04:04:31.016Z,999.1
2022-08-05T04:05:33.531Z,999.1
2022-08-05T04:06:34.972Z,999
2022-08-05T04:07:36.962Z,999
2022-08-05T04:08:38.973Z,999
2022-08-05T04:09:53.323Z,999
2022-08-05T04:10:42.980Z,999
2022-08-05T04:11:47.814Z,999
2022-08-05T04:12:46.969Z,999
2022-08-05T04:13:50.793Z,999
2022-08-05T04:14:51.036Z,999
2022-08-05T04:16:03.486Z,999
2022-08-05T04:16:54.982Z,999
2022-08-05T04:17:59.913Z,998.9
2022-08-05T04:19:00.020Z,998.9
2022-08-05T04:20:01.053Z,998.9
2022-08-05T04:21:03.852Z,998.9
2022-08-05T04:22:10.459Z,998.9
2022-08-05T04:23:07.006Z,998.9
2022-08-05T04:24:09.293Z,998.9
2022-08-05T04:25:11.081Z,998.9
2022-08-05T04:26:13.680Z,998.9
2022-08-05T04:27:19.852Z,998.9
2022-08-05T04:28:17.181Z,998.9
2022-08-05T04:29:18.999Z,998.9
2022-08-05T04:30:21.088Z,998.8
2022-08-05T04:31:23.016Z,998.8
2022-08-05T04:32:30.879Z,998.8
2022-08-05T04:33:36.418Z,998.8
2022-08-05T04:34:32.102Z,998.9
2022-08-05T04:36:09.345Z,998.8
2022-08-05T04:36:44.675Z,998.8
2022-08-05T04:38:01.952Z,998.9
2022-08-05T04:38:39.359Z,998.9
2022-08-05T04:39:40.061Z,998.9
2022-08-05T04:40:41.694Z,998.9
2022-08-05T04:41:43.039Z,998.9
2022-08-05T04:42:45.036Z,998.9
2022-08-05T04:43:48.048Z,998.9
2022-08-05T04:44:49.039Z,998.9
2022-08-05T04:45:54.824Z,998.9
2022-08-05T04:46:53.036Z,998.9
2022-08-05T04:47:55.050Z,998.8
2022-08-05T04:48:58.800Z,998.9
2022-08-05T04:50:01.216Z,998.9
2022-08-05T04:51:01.483Z,998.9
2022-08-05T04:52:03.099Z,998.9
2022-08-05T04:53:05.059Z,998.9
2022-08-05T04:54:07.051Z,998.8
2022-08-05T04:55:14.055Z,998.9
2022-08-05T04:56:15.718Z,998.9
2022-08-05T04:57:13.049Z,998.9
2022-08-05T04:58:15.082Z,998.9
2022-08-05T04:59:22.525Z,998.9
2022-08-05T05:00:19.056Z,998.9
2022-08-05T05:01:33.929Z,998.9
2022-08-05T05:02:35.880Z,998.9
2022-08-05T05:03:25.080Z,998.9
2022-08-05T05:04:27.127Z,998.9
2022-08-05T05:05:29.417Z,998.9
2022-08-05T05:06:35.704Z,998.9
2022-08-05T05:07:35.277Z,998.9
2022-08-05T05:08:35.066Z,998.9
2022-08-05T05:09:37.217Z,998.9
2022-08-05T05:10:39.163Z,999
2022-08-05T05:11:42.049Z,998.9
2022-08-05T05:12:43.086Z,998.9
2022-08-05T05:13:45.075Z,998.9
2022-08-05T05:14:49.624Z,998.9
2022-08-05T05:15:54.537Z,998.9
2022-08-05T05:16:51.087Z,998.9
2022-08-05T05:17:56.017Z,999
2022-08-05T05:19:16.728Z,998.9
2022-08-05T05:19:57.074Z,998.9
2022-08-05T05:20:59.131Z,998.9
2022-08-05T05:22:03.704Z,998.9
2022-08-05T05:23:08.294Z,998.9
2022-08-05T05:24:08.854Z,998.9
2022-08-05T05:25:14.826Z,998.9
2022-08-05T05:26:09.150Z,998.9
2022-08-05T05:27:11.112Z,998.9
2022-08-05T05:28:13.129Z,998.9
2022-08-05T05:29:15.175Z,998.8
2022-08-05T05:30:29.904Z,998.8
2022-08-05T05:31:19.178Z,998.8
2022-08-05T05:32:21.171Z,998.8
2022-08-05T05:33:23.670Z,998.8
2022-08-05T05:34:26.614Z,998.8
2022-08-05T05:35:27.123Z,998.8
2022-08-05T05:36:29.778Z,998.8
2022-08-05T05:37:37.410Z,998.9
2022-08-05T05:38:33.147Z,998.9
2022-08-05T05:39:36.138Z,998.9
2022-08-05T05:40:37.769Z,998.8
2022-08-05T05:41:41.842Z,998.9
2022-08-05T05:42:42.141Z,998.9
2022-08-05T05:43:54.684Z,998.9
2022-08-05T05:44:46.160Z,998.9
2022-08-05T05:45:48.459Z,998.9
2022-08-05T05:46:50.153Z,998.9
2022-08-05T05:48:05.870Z,998.8
2022-08-05T05:48:54.209Z,998.9
2022-08-05T05:49:56.680Z,998.9
2022-08-05T05:50:58.967Z,998.9
2022-08-05T05:52:01.152Z,998.9
2022-08-05T05:53:03.156Z,998.9
2022-08-05T05:54:05.373Z,998.9
2022-08-05T05:55:13.181Z,998.9
2022-08-05T05:56:10.570Z,998.9
2022-08-05T05:57:13.650Z,998.9
2022-08-05T05:58:14.191Z,998.9
2022-08-05T05:59:16.157Z,998.9
2022-08-05T06:00:18.187Z,998.9
2022-08-05T06:01:23.329Z,998.9
2022-08-05T06:02:25.293Z,998.8
2022-08-05T06:03:28.515Z,998.8
2022-08-05T06:04:26.411Z,998.9
2022-08-05T06:05:29.339Z,998.9
2022-08-05T06:06:33.274Z,998.9
2022-08-05T06:07:41.434Z,998.9
2022-08-05T06:08:35.190Z,998.9
2022-08-05T06:09:52.798Z,998.9
2022-08-05T06:10:49.045Z,998.9
2022-08-05T06:11:41.178Z,998.9
2022-08-05T06:12:43.179Z,999
2022-08-05T06:13:50.308Z,999
2022-08-05T06:14:47.222Z,999
2022-08-05T06:16:27.980Z,999
2022-08-05T06:16:51.189Z,998.9
2022-08-05T06:17:54.165Z,999
2022-08-05T06:18:55.228Z,999
2022-08-05T06:19:59.490Z,999
2022-08-05T06:20:59.424Z,998.9
2022-08-05T06:22:01.252Z,998.9
2022-08-05T06:23:03.993Z,998.9
2022-08-05T06:24:05.239Z,998.9
2022-08-05T06:25:24.734Z,998.8
2022-08-05T06:26:13.123Z,998.8
2022-08-05T06:27:13.105Z,998.7
2022-08-05T06:28:20.629Z,998.6
2022-08-05T06:29:24.897Z,998.4
2022-08-05T06:30:18.064Z,998.3
2022-08-05T06:31:21.702Z,998.2
2022-08-05T06:32:25.726Z,998.1
2022-08-05T06:33:33.188Z,998
2022-08-05T06:34:26.481Z,998
2022-08-05T06:36:04.367Z,998
2022-08-05T06:36:29.222Z,998
2022-08-05T06:37:52.406Z,998
2022-08-05T06:38:35.738Z,998
2022-08-05T06:39:35.344Z,997.9
2022-08-05T06:40:37.242Z,997.9
2022-08-05T06:41:40.589Z,997.9
2022-08-05T06:42:41.324Z,997.9
2022-08-05T06:43:51.811Z,998
2022-08-05T06:44:45.257Z,998
2022-08-05T06:46:04.314Z,998
2022-08-05T06:46:51.007Z,998.1
2022-08-05T06:48:12.405Z,998.2
2022-08-05T06:48:56.488Z,998.3
2022-08-05T06:50:00.978Z,998.3
2022-08-05T06:50:57.632Z,998.1
2022-08-05T06:51:59.487Z,998.1
2022-08-05T06:53:04.118Z,998
2022-08-05T06:54:03.290Z,998
2022-08-05T06:55:05.270Z,998.1
2022-08-05T06:56:07.258Z,998.2
2022-08-05T06:57:14.017Z,998.3
2022-08-05T06:58:20.425Z,998.4
2022-08-05T06:59:13.267Z,998.3
2022-08-05T07:00:15.332Z,998.4
2022-08-05T07:01:20.888Z,998.2
2022-08-05T07:02:22.713Z,998.1
2022-08-05T07:03:21.306Z,998.1
2022-08-05T07:04:23.263Z,998
2022-08-05T07:05:27.804Z,998
2022-08-05T07:06:27.681Z,998
2022-08-05T07:07:35.671Z,998
2022-08-05T07:08:31.772Z,998
2022-08-05T07:09:32.803Z,998
2022-08-05T07:10:34.689Z,997.9
2022-08-05T07:11:36.681Z,997.9
2022-08-05T07:12:37.705Z,997.9
2022-08-05T07:13:57.289Z,998
2022-08-05T07:14:40.703Z,998
2022-08-05T07:16:00.613Z,998
2022-08-05T07:17:56.162Z,998
2022-08-05T07:17:58.065Z,998
2022-08-05T07:18:47.817Z,998
2022-08-05T07:20:49.708Z,997.9
2022-08-05T07:21:59.688Z,998
2022-08-05T07:22:53.599Z,998
2022-08-05T07:23:56.298Z,998
2022-08-05T07:24:58.311Z,998
2022-08-05T07:25:59.721Z,998
2022-08-05T07:27:00.730Z,998
2022-08-05T07:28:05.851Z,998
2022-08-05T07:29:03.309Z,998
2022-08-05T07:30:21.979Z,998
2022-08-05T07:31:06.699Z,998
2022-08-05T07:32:08.739Z,998
2022-08-05T07:33:10.724Z,998
2022-08-05T07:34:10.773Z,997.9
2022-08-05T07:35:39.811Z,998
2022-08-05T07:36:20.523Z,998
2022-08-05T07:37:13.879Z,998
2022-08-05T07:38:26.301Z,998
2022-08-05T07:39:24.512Z,998
2022-08-05T07:40:26.399Z,998.1
2022-08-05T07:42:10.028Z,998.1
2022-08-05T07:42:31.617Z,998.2
2022-08-05T07:43:21.517Z,998.1
2022-08-05T07:44:23.397Z,998.2
2022-08-05T07:45:31.228Z,998.1
2022-08-05T07:46:26.316Z,998.1
2022-08-05T07:47:26.731Z,998.1
2022-08-05T07:49:01.365Z,998.1
2022-08-05T07:49:29.798Z,998.1
2022-08-05T07:50:32.474Z,998
2022-08-05T07:51:36.462Z,998
2022-08-05T07:52:32.748Z,998.1
2022-08-05T07:53:36.760Z,998.1
2022-08-05T07:54:38.720Z,998.1
2022-08-05T07:55:44.665Z,998
2022-08-05T07:56:39.549Z,998
2022-08-05T07:57:52.393Z,998
2022-08-05T07:58:55.135Z,998
2022-08-05T07:59:41.018Z,998
2022-08-05T08:00:40.779Z,998
2022-08-05T08:01:51.845Z,998
2022-08-05T08:03:13.461Z,998
2022-08-05T08:03:44.192Z,998
2022-08-05T08:04:45.667Z,998
2022-08-05T08:05:49.551Z,998
2022-08-05T08:06:47.786Z,998
2022-08-05T08:07:59.392Z,998.1
2022-08-05T08:08:49.787Z,998.1
2022-08-05T08:09:52.209Z,998.1
2022-08-05T08:10:51.865Z,998.1
2022-08-05T08:11:54.320Z,998.1
2022-08-05T08:12:53.781Z,998.1
2022-08-05T08:14:00.949Z,998.2
2022-08-05T08:14:55.790Z,998.1
2022-08-05T08:16:34.274Z,998.1
2022-08-05T08:16:57.785Z,998.1
2022-08-05T08:17:58.780Z,998.1
2022-08-05T08:19:00.485Z,998.1
2022-08-05T08:20:23.085Z,998.1
2022-08-05T08:21:03.985Z,998.1
2022-08-05T08:22:04.511Z,998.1
2022-08-05T08:23:05.803Z,998.1
2022-08-05T08:24:08.536Z,998.1
2022-08-05T08:25:15.996Z,998.1
2022-08-05T08:26:08.896Z,998.1
2022-08-05T08:27:10.896Z,998.1
2022-08-05T08:28:18.583Z,998.1
2022-08-05T08:29:22.350Z,998.1
2022-08-05T08:30:20.380Z,998.1
2022-08-05T08:31:17.583Z,998.1
2022-08-05T08:32:15.848Z,998.1
2022-08-05T08:33:16.901Z,998.1
2022-08-05T08:34:18.607Z,998.1
2022-08-05T08:35:18.799Z,998.2
2022-08-05T08:36:37.282Z,998.1
2022-08-05T08:37:20.890Z,998.1
2022-08-05T08:38:32.342Z,998.2
2022-08-05T08:39:25.621Z,998.2
2022-08-05T08:40:26.856Z,998.1
2022-08-05T08:41:50.497Z,998.1
2022-08-05T08:42:34.014Z,998.1
2022-08-05T08:45:01.680Z,998.1
2022-08-05T08:45:17.444Z,998.1
2022-08-05T08:45:31.872Z,998.1
2022-08-05T08:46:32.853Z,998.1
2022-08-05T08:47:48.046Z,998.1
2022-08-05T08:48:43.846Z,998.1
2022-08-05T08:50:08.039Z,998.1
2022-08-05T08:51:04.291Z,998.1
2022-08-05T08:52:04.475Z,998.1
2022-08-05T08:52:42.392Z,998.1
2022-08-05T08:53:44.541Z,998.1
2022-08-05T08:54:44.922Z,998.1
2022-08-05T08:56:03.325Z,998.1
2022-08-05T08:56:47.544Z,998.2
2022-08-05T08:57:48.584Z,998.2
2022-08-05T08:58:48.951Z,998.2
2022-08-05T08:59:49.874Z,998.2
2022-08-05T09:00:50.941Z,998.2
2022-08-05T09:01:57.165Z,998.1
2022-08-05T09:02:52.881Z,998.1
2022-08-05T09:03:55.745Z,998.1
2022-08-05T09:04:58.692Z,998.1
2022-08-05T09:06:08.259Z,998.2
2022-08-05T09:06:56.888Z,998.2
2022-08-05T09:07:59.066Z,998.2
2022-08-05T09:08:58.965Z,998.1
2022-08-05T09:09:59.946Z,998.2
2022-08-05T09:11:00.901Z,998.2
2022-08-05T09:12:13.501Z,998.1
2022-08-05T09:13:04.479Z,998.2
2022-08-05T09:14:09.840Z,998.2
2022-08-05T09:15:05.926Z,998.2
2022-08-05T09:16:06.098Z,998.2
2022-08-05T09:17:08.120Z,998.1
2022-08-05T09:18:08.762Z,998.2
2022-08-05T09:19:09.929Z,998.2
2022-08-05T09:20:10.974Z,998.1
2022-08-05T09:21:20.556Z,998.1
2022-08-05T09:22:18.565Z,998.1
2022-08-05T09:23:19.315Z,998.1
2022-08-05T09:24:15.978Z,998.2
2022-08-05T09:25:24.169Z,998.1
2022-08-05T09:26:20.670Z,998.1
2022-08-05T09:28:03.338Z,998.1
2022-08-05T09:28:21.272Z,998.1
2022-08-05T09:29:30.835Z,998.1
2022-08-05T09:30:23.212Z,998.1
2022-08-05T09:32:38.915Z,998.1
2022-08-05T09:32:42.465Z,998.1
2022-08-05T09:33:35.034Z,998.2
2022-08-05T09:34:26.952Z,998.1
2022-08-05T09:35:28.103Z,998.2
2022-08-05T09:36:33.533Z,998.2
2022-08-05T09:38:11.738Z,998.2
2022-08-05T09:38:31.950Z,998.2
2022-08-05T09:39:39.361Z,998.2
2022-08-05T09:40:33.943Z,998.2
2022-08-05T09:41:38.358Z,998.2
2022-08-05T09:42:35.950Z,998.2
2022-08-05T09:43:40.424Z,998.2
2022-08-05T09:44:37.986Z,998.2
2022-08-05T09:46:05.399Z,998.2
2022-08-05T09:46:40.007Z,998.2
2022-08-05T09:47:48.935Z,998.2
2022-08-05T09:48:41.973Z,998.2
2022-08-05T09:49:54.539Z,998.1
2022-08-05T09:50:45.055Z,998.1
2022-08-05T09:51:45.001Z,998.1
2022-08-05T09:52:45.983Z,998.1
2022-08-05T09:53:51.109Z,998.2
2022-08-05T09:54:47.981Z,998.2
2022-08-05T09:55:55.848Z,998.2
2022-08-05T09:56:51.674Z,998.1
2022-08-05T09:57:54.477Z,998.2
2022-08-05T09:58:51.985Z,998.2
2022-08-05T09:59:52.974Z,998.2
2022-08-05T10:00:54.051Z,998.2
2022-08-05T10:01:57.749Z,998.2
2022-08-05T10:02:58.170Z,998.1
2022-08-05T10:03:59.829Z,998.2
2022-08-05T10:05:00.046Z,998.2
2022-08-05T10:06:03.657Z,998.2
2022-08-05T10:07:14.234Z,998.2
2022-08-05T10:08:11.415Z,998.2
2022-08-05T10:09:04.526Z,998.2
2022-08-05T10:10:15.414Z,998.2
2022-08-05T10:11:07.014Z,998.2
2022-08-05T10:12:18.442Z,998.3
2022-08-05T10:13:09.629Z,998.3
2022-08-05T10:14:10.150Z,998.3
2022-08-05T10:15:11.063Z,998.3
2022-08-05T10:16:12.063Z,998.2
2022-08-05T10:17:37.060Z,998.2
2022-08-05T10:18:16.634Z,998.2
2022-08-05T10:19:16.051Z,998.2
2022-08-05T10:20:18.325Z,998.2
2022-08-05T10:21:18.465Z,998.2
2022-08-05T10:22:30.150Z,998.2
2022-08-05T10:23:22.101Z,998.2
2022-08-05T10:24:22.167Z,998.2
2022-08-05T10:25:23.056Z,998.2
2022-08-05T10:26:24.187Z,998.2
2022-08-05T10:27:26.153Z,998.2
2022-08-05T10:28:29.550Z,998.2
2022-08-05T10:30:05.903Z,998.2
2022-08-05T10:30:42.160Z,998.2
2022-08-05T10:32:50.485Z,998.1
2022-08-05T10:32:51.422Z,998.2
2022-08-05T10:33:34.177Z,998.1
2022-08-05T10:34:33.103Z,998.1
2022-08-05T10:35:40.472Z,998.2
2022-08-05T10:36:35.199Z,998.1
2022-08-05T10:37:37.318Z,998.1
2022-08-05T10:38:38.069Z,998.1
2022-08-05T10:39:58.892Z,998.1
2022-08-05T10:40:40.594Z,998.1
2022-08-05T10:41:44.806Z,998.1
2022-08-05T10:42:43.727Z,998.1
2022-08-05T10:43:43.083Z,998.1
2022-08-05T10:44:44.087Z,998.1
2022-08-05T10:45:45.088Z,998.1
2022-08-05T10:46:46.074Z,998.1
2022-08-05T10:47:56.245Z,998.1
2022-08-05T10:48:53.145Z,998.1
2022-08-05T10:50:20.240Z,998.1
2022-08-05T10:50:52.148Z,998.1
2022-08-05T10:51:58.318Z,998.1
2022-08-05T10:52:54.160Z,998.1
2022-08-05T10:53:55.116Z,998
2022-08-05T10:54:57.218Z,998
2022-08-05T10:56:03.907Z,998
2022-08-05T10:56:58.099Z,998.1
2022-08-05T10:57:59.193Z,998
2022-08-05T10:59:07.407Z,998
2022-08-05T11:00:08.249Z,998
2022-08-05T11:01:02.920Z,998
2022-08-05T11:02:04.832Z,998
2022-08-05T11:03:22.914Z,998
2022-08-05T11:04:06.899Z,998
2022-08-05T11:05:08.287Z,998
2022-08-05T11:06:14.722Z,998
2022-08-05T11:07:10.120Z,998
2022-08-05T11:08:33.967Z,998
2022-08-05T11:09:13.132Z,998
2022-08-05T11:10:13.229Z,998
2022-08-05T11:11:16.671Z,998
2022-08-05T11:12:15.421Z,998
2022-08-05T11:13:16.141Z,998
2022-08-05T11:14:18.161Z,998
2022-08-05T11:15:20.598Z,998
2022-08-05T11:16:20.183Z,998.1
2022-08-05T11:17:56.926Z,998
2022-08-05T11:18:22.156Z,998
2022-08-05T11:20:09.849Z,998
2022-08-05T11:20:24.152Z,998
2022-08-05T11:21:25.159Z,998
2022-08-05T11:22:26.183Z,998
2022-08-05T11:23:33.826Z,998
2022-08-05T11:24:29.689Z,998
2022-08-05T11:26:04.028Z,998
2022-08-05T11:26:32.782Z,998.1
2022-08-05T11:27:45.903Z,998.1
2022-08-05T11:28:35.967Z,998.1
2022-08-05T11:29:35.146Z,998
2022-08-05T11:30:36.178Z,998
2022-08-05T11:31:54.926Z,998
2022-08-05T11:32:38.176Z,998
2022-08-05T11:33:44.138Z,998
2022-08-05T11:34:47.390Z,998
2022-08-05T11:36:04.553Z,998
2022-08-05T11:36:42.778Z,998
2022-08-05T11:38:27.183Z,998
2022-08-05T11:38:45.322Z,997.9
2022-08-05T11:39:48.155Z,998
2022-08-05T11:40:46.197Z,998
2022-08-05T11:41:56.132Z,998
2022-08-05T11:42:48.150Z,998
2022-08-05T11:43:58.549Z,998
2022-08-05T11:44:52.882Z,998
2022-08-05T11:46:15.937Z,998
2022-08-05T11:46:58.815Z,998
2022-08-05T11:47:54.666Z,998.1
2022-08-05T11:48:54.204Z,998
2022-08-05T11:49:55.251Z,998
2022-08-05T11:50:56.220Z,998
2022-08-05T11:51:57.489Z,998
2022-08-05T11:52:58.545Z,998
2022-08-05T11:53:59.216Z,998
2022-08-05T11:55:07.202Z,998
2022-08-05T11:56:01.252Z,998
2022-08-05T11:57:02.287Z,998
2022-08-05T11:58:08.853Z,998
2022-08-05T11:59:04.228Z,998
2022-08-05T12:00:06.102Z,998
2022-08-05T12:01:08.291Z,998
2022-08-05T12:02:23.789Z,998
2022-08-05T12:03:09.291Z,998
2022-08-05T12:04:10.237Z,998
2022-08-05T12:05:17.906Z,998
2022-08-05T12:06:12.248Z,998
2022-08-05T12:07:13.230Z,998
2022-08-05T12:08:18.357Z,997.9
2022-08-05T12:09:19.877Z,997.9
2022-08-05T12:10:16.250Z,997.9
2022-08-05T12:11:20.405Z,997.9
2022-08-05T12:12:18.246Z,997.9
2022-08-05T12:13:28.302Z,997.9
2022-08-05T12:14:20.248Z,997.9
2022-08-05T12:15:34.647Z,997.9
2022-08-05T12:16:25.348Z,997.9
2022-08-05T12:18:00.608Z,997.9
2022-08-05T12:18:24.635Z,997.9
2022-08-05T12:20:17.364Z,997.8
2022-08-05T12:20:28.816Z,997.9
2022-08-05T12:21:29.597Z,997.8
2022-08-05T12:22:28.290Z,997.9
2022-08-05T12:23:29.549Z,997.8
2022-08-05T12:24:30.281Z,997.8
2022-08-05T12:25:31.291Z,997.8
2022-08-05T12:26:32.300Z,997.8
2022-08-05T12:27:33.446Z,997.8
2022-08-05T12:28:34.364Z,997.8
2022-08-05T12:29:38.136Z,997.8
2022-08-05T12:30:36.291Z,997.8
2022-08-05T12:31:41.483Z,997.8
2022-08-05T12:32:38.352Z,997.8
2022-08-05T12:33:39.365Z,997.8
2022-08-05T12:34:40.291Z,997.8
2022-08-05T12:35:42.994Z,997.8
2022-08-05T12:36:42.438Z,997.8
2022-08-05T12:37:43.348Z,997.8
2022-08-05T12:38:44.338Z,997.8
2022-08-05T12:39:48.667Z,997.8
2022-08-05T12:40:46.605Z,997.7
2022-08-05T12:41:47.317Z,997.7
2022-08-05T12:42:48.818Z,997.8
2022-08-05T12:43:49.413Z,997.8
2022-08-05T12:44:50.300Z,997.8
2022-08-05T12:45:51.320Z,997.8
2022-08-05T12:46:52.323Z,997.8
2022-08-05T12:48:01.252Z,997.8
2022-08-05T12:48:54.349Z,997.8
2022-08-05T12:50:02.612Z,997.8
2022-08-05T12:50:56.447Z,997.8
2022-08-05T12:52:11.543Z,997.7
2022-08-05T12:52:58.336Z,997.7
2022-08-05T12:53:59.346Z,997.7
2022-08-05T12:55:00.645Z,997.7
2022-08-05T12:56:01.403Z,997.7
2022-08-05T12:57:02.403Z,997.7
2022-08-05T12:58:39.244Z,997.7
2022-08-05T12:59:08.030Z,997.7
2022-08-05T13:00:09.118Z,997.6
2022-08-05T13:01:58.736Z,997.6
2022-08-05T13:02:08.160Z,997.6
2022-08-05T13:03:08.410Z,997.6
2022-08-05T13:04:09.592Z,997.6
2022-08-05T13:05:11.222Z,997.6
2022-08-05T13:06:11.715Z,997.6
2022-08-05T13:07:15.861Z,997.6
2022-08-05T13:08:13.405Z,997.6
2022-08-05T13:09:14.371Z,997.6
2022-08-05T13:10:19.480Z,997.6
2022-08-05T13:11:16.409Z,997.6
2022-08-05T13:12:17.403Z,997.6
2022-08-05T13:14:04.196Z,997.6
2022-08-05T13:14:20.062Z,997.6
2022-08-05T13:15:24.281Z,997.6
2022-08-05T13:16:25.319Z,997.6
2022-08-05T13:17:25.127Z,997.6
2022-08-05T13:18:24.052Z,997.6
2022-08-05T13:19:24.444Z,997.6
2022-08-05T13:20:29.141Z,997.6
2022-08-05T13:21:28.048Z,997.6
2022-08-05T13:22:27.833Z,997.6